Time;durP1;ratioP1;P1;durP2;ratioP2;P2;SDS_P1;SDS_P2;PMS_P1;PMS_P2;Temp;Humidity;BMP_temperature;BMP_pressure;BME280_temperature;BME280_humidity;BME280_pressure;Samples;Min_cycle;Max_cycle;Signal;HPM_P1;HPM_P2
2023/04/14 00:00:12;;;;;;;;;;;;;;;16.67;40.49;99853.53;4950645;27;98281;-67
2023/04/14 00:02:38;;;;;;;;;;;;;;;16.65;40.54;99863.91;4970285;27;123233;-67
2023/04/14 00:05:05;;;;;;;;;;;;;;;16.66;40.39;99857.38;4969683;27;98644;-66
2023/04/14 00:07:33;;;;;;;;;;;;;;;16.65;40.47;99854.97;4965535;27;124910;-67
2023/04/14 00:09:59;;;;;;;;;;;;;;;16.64;40.51;99861.53;4966792;27;122521;-66
2023/04/14 00:12:25;;;;;;;;;;;;;;;16.64;40.43;99864.25;4968275;27;131183;-66
2023/04/14 00:14:51;;;;;;;;;;;;;;;16.63;40.47;99862.66;4969380;27;114843;-66
2023/04/14 00:17:17;;;;;;;;;;;;;;;16.62;40.55;99864.59;4969358;27;126890;-66
2023/04/14 00:19:43;;;;;;;;;;;;;;;16.61;40.50;99852.06;4950630;27;123032;-67
2023/04/14 00:22:09;;;;;;;;;;;;;;;16.61;40.45;99848.56;4953574;27;126751;-66
2023/04/14 00:24:41;;;;;;;;;;;;;;;16.60;40.39;99842.31;4957638;27;98123;-67
2023/04/14 00:27:10;;;;;;;;;;;;;;;16.59;40.54;99840.75;4961311;27;97797;-66
2023/04/14 00:29:39;;;;;;;;;;;;;;;16.58;40.44;99833.66;4974235;27;98149;-66
2023/04/14 00:32:05;;;;;;;;;;;;;;;16.57;40.37;99831.28;4973204;27;99540;-66
2023/04/14 00:34:32;;;;;;;;;;;;;;;16.57;40.59;99836.72;4953115;27;98389;-67
2023/04/14 00:36:57;;;;;;;;;;;;;;;16.56;40.38;99846.03;4970148;27;111468;-67
2023/04/14 00:39:23;;;;;;;;;;;;;;;16.55;40.40;99841.72;4973765;27;123715;-67
2023/04/14 00:41:49;;;;;;;;;;;;;;;16.54;40.58;99846.31;4971434;27;124177;-68
2023/04/14 00:44:15;;;;;;;;;;;;;;;16.53;40.60;99839.28;4971878;27;125606;-66
2023/04/14 00:46:42;;;;;;;;;;;;;;;16.52;40.45;99850.50;4973798;27;103760;-66
2023/04/14 00:49:08;;;;;;;;;;;;;;;16.51;40.54;99851.63;4971118;27;98165;-67
2023/04/14 00:51:34;;;;;;;;;;;;;;;16.50;40.57;99850.81;4972844;27;98617;-66
2023/04/14 00:54:02;;;;;;;;;;;;;;;16.49;40.42;99857.38;4948657;28;129043;-67
2023/04/14 00:56:30;;;;;;;;;;;;;;;16.49;40.52;99859.28;4951426;27;112883;-67
2023/04/14 00:58:58;;;;;;;;;;;;;;;16.47;40.60;99854.19;4952855;28;98077;-67
2023/04/14 01:01:24;;;;;;;;;;;;;;;16.46;40.48;99860.72;4972927;27;127916;-66
2023/04/14 01:03:50;;;;;;;;;;;;;;;16.45;40.39;99856.41;4953147;27;98714;-67
2023/04/14 01:06:16;;;;;;;;;;;;;;;16.44;40.45;99852.09;4955535;27;120005;-67
2023/04/14 01:08:42;;;;;;;;;;;;;;;16.43;40.48;99856.75;4970507;27;121407;-67
2023/04/14 01:11:12;;;;;;;;;;;;;;;16.43;40.35;99850.50;4971952;27;127776;-66
2023/04/14 01:14:03;;;;;;;;;;;;;;;16.42;40.60;99848.91;4954327;27;98595;-67
2023/04/14 01:16:30;;;;;;;;;;;;;;;16.40;40.43;99851.94;4957434;27;98741;-66
2023/04/14 01:19:22;;;;;;;;;;;;;;;16.39;40.47;99857.72;4942087;27;102669;-66
2023/04/14 01:21:51;;;;;;;;;;;;;;;16.34;40.48;99850.50;4956263;27;124315;-66
2023/04/14 01:24:50;;;;;;;;;;;;;;;16.31;40.56;99850.34;4952888;27;99533;-67
2023/04/14 01:27:52;;;;;;;;;;;;;;;16.29;40.36;99852.59;4955553;27;99417;-66
2023/04/14 01:30:45;;;;;;;;;;;;;;;16.25;40.26;99855.16;4939896;27;120249;-66
2023/04/14 01:33:14;;;;;;;;;;;;;;;16.23;40.49;99859.28;4954720;27;100122;-66
2023/04/14 01:35:43;;;;;;;;;;;;;;;16.20;40.43;99858.81;4974247;27;98577;-66
2023/04/14 01:38:13;;;;;;;;;;;;;;;16.19;40.59;99864.56;4957687;28;122828;-67
2023/04/14 01:40:40;;;;;;;;;;;;;;;16.18;40.42;99863.78;4960155;27;104510;-67
2023/04/14 01:43:09;;;;;;;;;;;;;;;16.16;40.55;99866.03;4957677;27;127819;-67
2023/04/14 01:45:41;;;;;;;;;;;;;;;16.14;40.79;99870.97;4970600;27;98356;-66
2023/04/14 01:48:07;;;;;;;;;;;;;;;16.13;40.42;99872.09;4966723;27;126561;-67
2023/04/14 01:50:34;;;;;;;;;;;;;;;16.13;40.60;99879.44;4971600;27;122810;-67
2023/04/14 01:53:00;;;;;;;;;;;;;;;16.11;40.44;99882.50;4953414;27;122419;-67
2023/04/14 01:55:26;;;;;;;;;;;;;;;16.10;40.33;99886.31;4959209;27;129767;-67
2023/04/14 01:57:53;;;;;;;;;;;;;;;16.09;40.50;99884.72;4952579;27;112427;-67
2023/04/14 02:00:19;;;;;;;;;;;;;;;16.09;40.54;99878.47;4969869;27;97935;-66
2023/04/14 02:02:45;;;;;;;;;;;;;;;16.08;40.56;99882.34;4932824;27;99181;-66
2023/04/14 02:05:14;;;;;;;;;;;;;;;16.07;40.62;99886.16;4951621;28;98752;-67
2023/04/14 02:07:40;;;;;;;;;;;;;;;16.06;40.47;99892.72;4968504;27;98962;-67
2023/04/14 02:10:08;;;;;;;;;;;;;;;16.04;40.41;99889.53;4970776;27;121215;-66
2023/04/14 02:12:35;;;;;;;;;;;;;;;16.03;40.46;99887.91;4953670;27;98574;-67
2023/04/14 02:15:01;;;;;;;;;;;;;;;16.03;40.80;99891.41;4971695;27;98152;-66
2023/04/14 02:17:27;;;;;;;;;;;;;;;16.01;40.57;99877.34;4957793;27;127463;-66
2023/04/14 02:19:53;;;;;;;;;;;;;;;16.01;40.65;99882.00;4968771;27;123423;-66
2023/04/14 02:22:19;;;;;;;;;;;;;;;16.00;40.62;99886.63;4949970;27;126438;-67
2023/04/14 02:24:46;;;;;;;;;;;;;;;15.99;40.58;99882.28;4970298;27;98373;-68
2023/04/14 02:27:16;;;;;;;;;;;;;;;15.99;40.29;99876.84;4948836;27;98732;-67
2023/04/14 02:29:47;;;;;;;;;;;;;;;15.98;40.42;99869.03;4937468;27;112021;-68
2023/04/14 02:32:16;;;;;;;;;;;;;;;15.97;40.61;99853.84;4950396;27;125479;-67
2023/04/14 02:35:16;;;;;;;;;;;;;;;15.95;40.57;99835.94;4969082;27;116714;-65
2023/04/14 02:37:44;;;;;;;;;;;;;;;15.94;40.79;99834.31;4944909;27;98384;-67
2023/04/14 02:40:30;;;;;;;;;;;;;;;15.94;40.52;99836.25;4951240;27;115187;-66
2023/04/14 02:43:00;;;;;;;;;;;;;;;15.90;40.61;99827.94;4950247;27;98029;-68
2023/04/14 02:45:27;;;;;;;;;;;;;;;15.91;40.45;99820.56;4932882;27;98923;-67
2023/04/14 02:47:55;;;;;;;;;;;;;;;15.90;40.44;99824.41;4937335;27;98529;-66
2023/04/14 02:50:21;;;;;;;;;;;;;;;15.89;40.56;99828.25;4949028;27;106687;-67
2023/04/14 02:52:50;;;;;;;;;;;;;;;15.88;40.45;99832.91;4954151;27;130331;-66
2023/04/14 02:55:16;;;;;;;;;;;;;;;15.89;40.29;99830.97;4939409;27;100613;-66
2023/04/14 02:57:42;;;;;;;;;;;;;;;15.87;40.68;99831.28;4953214;27;125991;-68
2023/04/14 03:00:08;;;;;;;;;;;;;;;15.86;40.67;99829.69;4969942;27;119770;-67
2023/04/14 03:02:34;;;;;;;;;;;;;;;15.86;40.46;99831.59;4951288;27;98069;-69
2023/04/14 03:05:01;;;;;;;;;;;;;;;15.85;40.66;99830.00;4954646;28;99357;-66
2023/04/14 03:07:26;;;;;;;;;;;;;;;15.85;40.63;99827.28;4971651;27;97901;-65
2023/04/14 03:09:52;;;;;;;;;;;;;;;15.85;40.56;99830.00;4969746;27;102526;-67
2023/04/14 03:12:18;;;;;;;;;;;;;;;15.83;40.51;99830.31;4967931;27;128469;-66
2023/04/14 03:14:44;;;;;;;;;;;;;;;15.83;40.41;99833.03;4949439;27;127381;-65
2023/04/14 03:17:13;;;;;;;;;;;;;;;15.82;40.51;99836.06;4967248;27;100447;-65
2023/04/14 03:19:40;;;;;;;;;;;;;;;15.82;40.62;99834.16;4955602;27;98220;-65
2023/04/14 03:22:07;;;;;;;;;;;;;;;15.82;40.53;99836.06;4951186;27;98293;-65
2023/04/14 03:24:33;;;;;;;;;;;;;;;15.81;40.52;99837.19;4948858;27;98439;-65
2023/04/14 03:27:26;;;;;;;;;;;;;;;15.80;40.72;99844.56;4966326;27;127754;-66
2023/04/14 03:29:53;;;;;;;;;;;;;;;15.80;40.50;99857.31;4970918;27;97944;-66
2023/04/14 03:32:21;;;;;;;;;;;;;;;15.79;40.64;99848.38;4970072;27;98763;-66
2023/04/14 03:34:49;;;;;;;;;;;;;;;15.77;40.53;99853.34;4933047;27;121779;-65
2023/04/14 03:37:19;;;;;;;;;;;;;;;15.78;40.57;99849.50;4936414;27;123434;-65
2023/04/14 03:39:46;;;;;;;;;;;;;;;15.77;40.57;99847.09;4955030;27;98027;-66
2023/04/14 03:42:12;;;;;;;;;;;;;;;15.77;40.52;99849.81;4950787;27;111571;-67
2023/04/14 03:44:38;;;;;;;;;;;;;;;15.76;40.61;99851.75;4951960;27;128268;-66
2023/04/14 03:47:06;;;;;;;;;;;;;;;15.75;40.54;99849.31;4969992;27;98601;-66
2023/04/14 03:49:35;;;;;;;;;;;;;;;15.75;40.66;99855.56;4968924;27;97946;-64
2023/04/14 03:52:06;;;;;;;;;;;;;;;15.76;40.74;99848.19;4952612;27;98841;-66
2023/04/14 03:54:33;;;;;;;;;;;;;;;15.74;40.55;99843.09;4958188;27;98035;-67
2023/04/14 03:57:00;;;;;;;;;;;;;;;15.74;40.67;99840.38;4953075;28;98518;-67
2023/04/14 03:59:27;;;;;;;;;;;;;;;15.73;40.52;99827.91;4951321;27;98545;-67
2023/04/14 04:01:53;;;;;;;;;;;;;;;15.73;40.49;99838.78;4968990;27;127993;-67
2023/04/14 04:04:20;;;;;;;;;;;;;;;15.73;40.74;99838.78;4970429;27;98274;-65
2023/04/14 04:06:48;;;;;;;;;;;;;;;15.73;40.67;99829.84;4972488;27;102100;-69
2023/04/14 04:09:14;;;;;;;;;;;;;;;15.73;40.59;99832.56;4973573;27;97906;-64
2023/04/14 04:11:42;;;;;;;;;;;;;;;15.71;40.61;99832.84;4942852;28;98964;-67
2023/04/14 04:14:08;;;;;;;;;;;;;;;15.72;40.76;99831.75;4956934;28;98140;-65
2023/04/14 04:16:34;;;;;;;;;;;;;;;15.70;40.67;99836.69;4972173;27;127717;-67
2023/04/14 04:19:00;;;;;;;;;;;;;;;15.71;40.61;99841.00;4960334;28;98341;-67
2023/04/14 04:21:26;;;;;;;;;;;;;;;15.70;40.88;99837.50;4967948;27;128401;-64
2023/04/14 04:23:53;;;;;;;;;;;;;;;15.70;40.70;99839.41;4954943;28;128618;-67
2023/04/14 04:26:19;;;;;;;;;;;;;;;15.70;40.87;99828.53;4969950;27;98105;-68
2023/04/14 04:28:45;;;;;;;;;;;;;;;15.69;40.58;99816.88;4967941;27;98596;-68
2023/04/14 04:31:10;;;;;;;;;;;;;;;15.70;40.60;99821.19;4937443;27;99262;-68
2023/04/14 04:33:36;;;;;;;;;;;;;;;15.70;40.78;99820.38;4971859;27;128170;-66
2023/04/14 04:36:04;;;;;;;;;;;;;;;15.69;40.56;99819.59;4968394;27;112653;-68
2023/04/14 04:38:30;;;;;;;;;;;;;;;15.69;40.55;99816.88;4951863;27;98256;-66
2023/04/14 04:40:55;;;;;;;;;;;;;;;15.70;40.53;99817.66;4971022;27;128030;-69
2023/04/14 04:43:21;;;;;;;;;;;;;;;15.69;40.62;99821.50;4949394;27;127845;-66
2023/04/14 04:45:49;;;;;;;;;;;;;;;15.69;40.66;99821.50;4969708;27;127653;-68
2023/04/14 04:48:15;;;;;;;;;;;;;;;15.70;40.70;99820.38;4967991;27;97901;-66
2023/04/14 04:50:41;;;;;;;;;;;;;;;15.71;40.55;99813.84;4971379;27;128811;-69
2023/04/14 04:53:06;;;;;;;;;;;;;;;15.71;40.58;99822.78;4971798;27;98356;-68
2023/04/14 04:55:32;;;;;;;;;;;;;;;15.71;40.53;99816.53;4966813;27;127598;-68
2023/04/14 04:57:58;;;;;;;;;;;;;;;15.72;40.71;99820.88;4970649;27;98646;-66
2023/04/14 05:00:25;;;;;;;;;;;;;;;15.73;40.78;99830.63;4951743;27;98092;-66
2023/04/14 05:02:51;;;;;;;;;;;;;;;15.74;40.62;99824.06;4968056;27;98471;-66
2023/04/14 05:05:17;;;;;;;;;;;;;;;15.75;40.45;99833.81;4950510;28;117283;-66
2023/04/14 05:07:43;;;;;;;;;;;;;;;15.79;40.58;99826.63;4966151;27;121859;-68
2023/04/14 05:10:09;;;;;;;;;;;;;;;15.89;40.71;99828.25;4969542;27;100180;-66
2023/04/14 05:12:35;;;;;;;;;;;;;;;15.97;40.67;99824.75;4968760;27;124693;-66
2023/04/14 05:15:00;;;;;;;;;;;;;;;16.06;40.47;99828.25;4954903;27;128893;-66
2023/04/14 05:17:26;;;;;;;;;;;;;;;16.13;40.42;99835.94;4968929;27;121925;-65
2023/04/14 05:19:52;;;;;;;;;;;;;;;16.17;40.73;99834.19;4968062;27;125985;-67
2023/04/14 05:22:18;;;;;;;;;;;;;;;16.20;40.49;99842.50;4948689;27;129131;-68
2023/04/14 05:24:50;;;;;;;;;;;;;;;16.24;40.46;99831.81;4949419;27;127170;-68
2023/04/14 05:27:16;;;;;;;;;;;;;;;16.28;40.71;99831.97;4948000;27;100649;-66
2023/04/14 05:29:42;;;;;;;;;;;;;;;16.30;40.43;99838.66;4967842;27;128100;-65
2023/04/14 05:32:09;;;;;;;;;;;;;;;16.32;40.72;99836.44;4969190;27;125701;-65
2023/04/14 05:34:35;;;;;;;;;;;;;;;16.36;40.57;99833.88;4965537;27;100758;-68
2023/04/14 05:37:01;;;;;;;;;;;;;;;16.41;40.47;99830.97;4967421;27;99123;-66
2023/04/14 05:39:27;;;;;;;;;;;;;;;16.43;40.54;99837.72;4968438;27;98418;-66
2023/04/14 05:41:53;;;;;;;;;;;;;;;16.48;40.54;99844.09;4965024;27;128402;-66
2023/04/14 05:44:19;;;;;;;;;;;;;;;16.47;40.68;99846.03;4963819;27;127692;-66
2023/04/14 05:46:45;;;;;;;;;;;;;;;16.49;40.64;99851.13;4963644;27;122691;-66
2023/04/14 05:49:11;;;;;;;;;;;;;;;16.49;40.42;99851.13;4948936;27;127907;-66
2023/04/14 05:51:37;;;;;;;;;;;;;;;16.49;40.52;99862.03;4967822;27;127940;-66
2023/04/14 05:54:03;;;;;;;;;;;;;;;16.50;40.62;99861.69;4965878;27;126340;-66
2023/04/14 05:56:29;;;;;;;;;;;;;;;16.50;40.56;99874.50;4966293;27;121418;-66
2023/04/14 05:58:55;;;;;;;;;;;;;;;16.49;40.68;99881.06;4964816;27;128212;-66
2023/04/14 06:01:21;;;;;;;;;;;;;;;16.49;40.58;99881.84;4967949;27;99217;-69
2023/04/14 06:03:46;;;;;;;;;;;;;;;16.49;40.69;99879.13;4947713;27;127908;-65
2023/04/14 06:06:12;;;;;;;;;;;;;;;16.50;40.53;99877.22;4966694;27;123194;-66
2023/04/14 06:08:38;;;;;;;;;;;;;;;16.51;40.66;99879.63;4967249;27;128046;-68
2023/04/14 06:11:04;;;;;;;;;;;;;;;16.53;40.57;99880.09;4966356;27;127536;-65
2023/04/14 06:13:30;;;;;;;;;;;;;;;16.56;40.54;99875.94;4965687;27;127304;-66
2023/04/14 06:15:57;;;;;;;;;;;;;;;16.58;40.65;99873.69;4954869;27;98209;-65
2023/04/14 06:18:23;;;;;;;;;;;;;;;16.62;40.58;99871.91;4966771;27;98806;-66
2023/04/14 06:20:49;;;;;;;;;;;;;;;16.64;40.51;99867.75;4965196;27;98252;-66
2023/04/14 06:23:15;;;;;;;;;;;;;;;16.65;40.46;99866.63;4964523;27;128360;-69
2023/04/14 06:25:41;;;;;;;;;;;;;;;16.67;40.50;99864.41;4964536;27;98195;-66
2023/04/14 06:28:07;;;;;;;;;;;;;;;16.71;40.53;99858.31;4965721;27;107747;-69
2023/04/14 06:30:33;;;;;;;;;;;;;;;16.73;40.59;99861.50;4947903;27;99692;-66
2023/04/14 06:33:03;;;;;;;;;;;;;;;16.75;40.40;99853.88;4964392;27;98509;-66
2023/04/14 06:35:30;;;;;;;;;;;;;;;16.75;40.54;99862.03;4966804;27;98245;-66
2023/04/14 06:37:56;;;;;;;;;;;;;;;16.77;40.39;99859.78;4966677;27;98482;-66
2023/04/14 06:40:22;;;;;;;;;;;;;;;16.80;40.58;99859.13;4967564;27;98445;-69
2023/04/14 06:42:48;;;;;;;;;;;;;;;16.82;40.56;99851.44;4968116;27;98760;-69
2023/04/14 06:45:14;;;;;;;;;;;;;;;16.84;40.39;99850.00;4966954;27;122730;-66
2023/04/14 06:47:40;;;;;;;;;;;;;;;16.84;40.56;99847.28;4963769;27;128733;-68
2023/04/14 06:50:06;;;;;;;;;;;;;;;16.85;40.48;99848.06;4966914;27;98514;-66
2023/04/14 06:52:32;;;;;;;;;;;;;;;16.84;40.38;99855.44;4966185;27;98759;-68
2023/04/14 06:54:58;;;;;;;;;;;;;;;16.87;40.37;99848.56;4953557;28;121622;-68
2023/04/14 06:57:25;;;;;;;;;;;;;;;16.90;40.37;99851.44;4966538;27;128820;-69
2023/04/14 06:59:51;;;;;;;;;;;;;;;16.93;40.40;99848.03;4966667;27;98901;-69
2023/04/14 07:02:17;;;;;;;;;;;;;;;16.98;40.52;99840.81;4965012;27;128674;-66
2023/04/14 07:04:43;;;;;;;;;;;;;;;17.04;40.44;99842.25;4966829;27;122316;-69
2023/04/14 07:07:09;;;;;;;;;;;;;;;17.09;40.26;99836.63;4932495;27;130348;-69
2023/04/14 07:09:35;;;;;;;;;;;;;;;17.13;40.37;99826.69;4943244;28;98671;-69
2023/04/14 07:12:01;;;;;;;;;;;;;;;17.17;40.23;99828.44;4934178;28;128741;-69
2023/04/14 07:14:27;;;;;;;;;;;;;;;17.23;40.28;99823.59;4949979;28;98226;-69
2023/04/14 07:16:53;;;;;;;;;;;;;;;17.28;40.00;99822.63;4927223;28;106018;-69
2023/04/14 07:19:19;;;;;;;;;;;;;;;17.32;40.17;99818.91;4933842;28;100060;-69
2023/04/14 07:21:45;;;;;;;;;;;;;;;17.37;40.18;99816.03;4927658;28;99242;-66
2023/04/14 07:24:12;;;;;;;;;;;;;;;17.43;40.20;99816.63;4945160;28;97855;-66
2023/04/14 07:26:38;;;;;;;;;;;;;;;17.49;40.27;99811.78;4947772;28;98960;-69
2023/04/14 07:29:03;;;;;;;;;;;;;;;17.51;40.17;99813.06;4951270;28;127728;-69
2023/04/14 07:31:34;;;;;;;;;;;;;;;17.53;40.27;99820.91;4951962;28;126242;-66
2023/04/14 07:34:00;;;;;;;;;;;;;;;17.52;40.20;99811.13;4954534;28;98135;-64
2023/04/14 07:36:26;;;;;;;;;;;;;;;17.55;40.30;99813.19;4951463;28;99367;-65
2023/04/14 07:38:52;;;;;;;;;;;;;;;17.54;40.33;99815.13;4943864;28;98681;-66
2023/04/14 07:41:18;;;;;;;;;;;;;;;17.53;40.21;99815.47;4951658;28;126785;-65
2023/04/14 07:43:44;;;;;;;;;;;;;;;17.53;40.36;99820.91;4950785;28;98173;-68
2023/04/14 07:46:10;;;;;;;;;;;;;;;17.50;40.35;99819.63;4930821;28;128799;-68
2023/04/14 07:48:36;;;;;;;;;;;;;;;17.49;40.31;99820.78;4933672;28;119844;-66
2023/04/14 07:51:03;;;;;;;;;;;;;;;17.51;40.24;99823.94;4952615;28;97883;-68
2023/04/14 07:53:30;;;;;;;;;;;;;;;17.53;40.38;99813.53;4952839;28;118459;-68
2023/04/14 07:55:57;;;;;;;;;;;;;;;17.57;40.38;99813.69;4951981;28;98758;-69
2023/04/14 07:58:22;;;;;;;;;;;;;;;17.59;40.43;99811.41;4951853;28;98407;-67
2023/04/14 08:00:48;;;;;;;;;;;;;;;17.62;40.26;99814.28;4950921;28;128346;-67
2023/04/14 08:03:15;;;;;;;;;;;;;;;17.65;40.30;99815.56;4951837;28;124286;-67
2023/04/14 08:05:41;;;;;;;;;;;;;;;17.68;40.36;99812.13;4952737;28;99283;-70
2023/04/14 08:08:08;;;;;;;;;;;;;;;17.67;40.18;99808.63;4952865;28;120480;-66
2023/04/14 08:10:36;;;;;;;;;;;;;;;17.68;40.23;99803.97;4970311;27;99147;-66
2023/04/14 08:13:02;;;;;;;;;;;;;;;17.71;40.20;99806.03;4971784;27;117630;-69
2023/04/14 08:15:28;;;;;;;;;;;;;;;17.72;40.40;99806.84;4969355;27;128162;-67
2023/04/14 08:17:54;;;;;;;;;;;;;;;17.71;40.19;99808.75;4960111;27;98650;-69
2023/04/14 08:20:21;;;;;;;;;;;;;;;17.72;40.40;99807.63;4969965;27;98985;-67
2023/04/14 08:22:47;;;;;;;;;;;;;;;17.72;40.23;99801.38;4959371;27;99767;-70
2023/04/14 08:25:13;;;;;;;;;;;;;;;17.72;40.46;99804.91;4959460;27;127607;-69
2023/04/14 08:27:39;;;;;;;;;;;;;;;17.71;40.47;99806.03;4970684;27;98271;-69
2023/04/14 08:30:06;;;;;;;;;;;;;;;17.69;40.43;99807.50;4971338;27;99132;-70
2023/04/14 08:32:32;;;;;;;;;;;;;;;17.66;40.43;99801.59;4971324;27;97999;-70
2023/04/14 08:34:58;;;;;;;;;;;;;;;17.66;40.44;99798.06;4972847;27;99232;-70
2023/04/14 08:37:24;;;;;;;;;;;;;;;17.66;40.51;99798.84;4973293;27;98501;-70
2023/04/14 08:39:50;;;;;;;;;;;;;;;17.67;40.47;99797.72;4969916;27;98726;-67
2023/04/14 08:42:16;;;;;;;;;;;;;;;17.71;40.48;99797.06;4968189;27;98269;-64
2023/04/14 08:44:42;;;;;;;;;;;;;;;17.75;40.43;99795.31;4947530;27;126326;-64
2023/04/14 08:47:08;;;;;;;;;;;;;;;17.75;40.24;99793.38;4968682;27;128665;-64
2023/04/14 08:49:45;;;;;;;;;;;;;;;17.72;40.53;99787.75;4955370;28;128416;-67
2023/04/14 08:52:11;;;;;;;;;;;;;;;17.71;40.54;99788.88;4964878;27;121376;-68
2023/04/14 08:54:40;;;;;;;;;;;;;;;17.71;40.41;99781.50;4966639;27;98559;-65
2023/04/14 08:57:12;;;;;;;;;;;;;;;17.70;40.57;99779.13;4967777;27;98922;-65
2023/04/14 08:59:38;;;;;;;;;;;;;;;17.67;40.45;99777.84;4957152;27;98343;-68
2023/04/14 09:02:07;;;;;;;;;;;;;;;17.65;40.53;99780.13;4918046;28;122930;-68
2023/04/14 09:04:34;;;;;;;;;;;;;;;17.63;40.67;99776.91;4933463;27;98335;-65
2023/04/14 09:07:00;;;;;;;;;;;;;;;17.59;40.68;99786.88;4949163;27;123021;-68
2023/04/14 09:09:26;;;;;;;;;;;;;;;17.56;40.65;99779.38;4968890;27;116738;-65
2023/04/14 09:11:52;;;;;;;;;;;;;;;17.54;40.70;99784.34;4947638;27;120994;-65
2023/04/14 09:14:17;;;;;;;;;;;;;;;17.50;40.65;99786.94;4969249;27;99391;-69
2023/04/14 09:16:44;;;;;;;;;;;;;;;17.48;40.78;99781.00;4968674;27;126476;-65
2023/04/14 09:19:10;;;;;;;;;;;;;;;17.46;40.77;99788.72;4947960;27;100670;-65
2023/04/14 09:21:37;;;;;;;;;;;;;;;17.49;40.66;99784.53;4969919;27;98342;-68
2023/04/14 09:24:04;;;;;;;;;;;;;;;17.49;40.67;99779.91;4947594;27;125521;-68
2023/04/14 09:26:30;;;;;;;;;;;;;;;17.50;40.66;99772.53;4966705;27;100326;-68
2023/04/14 09:28:56;;;;;;;;;;;;;;;17.49;40.50;99771.72;4967918;27;98109;-64
2023/04/14 09:31:22;;;;;;;;;;;;;;;17.49;40.50;99766.28;4970282;27;98383;-65
2023/04/14 09:33:51;;;;;;;;;;;;;;;17.52;40.59;99770.25;4947279;27;99329;-69
2023/04/14 09:36:18;;;;;;;;;;;;;;;17.46;40.43;99769.66;4969494;27;98784;-69
2023/04/14 09:38:44;;;;;;;;;;;;;;;17.44;40.78;99774.63;4966993;27;97996;-68
2023/04/14 09:41:15;;;;;;;;;;;;;;;17.45;40.58;99778.16;4968110;27;122821;-64
2023/04/14 09:43:41;;;;;;;;;;;;;;;17.46;40.57;99768.88;4964953;27;99634;-64
2023/04/14 09:46:08;;;;;;;;;;;;;;;17.48;40.76;99769.31;4940056;27;113963;-65
2023/04/14 09:48:36;;;;;;;;;;;;;;;17.48;40.57;99775.56;4952741;27;100115;-65
2023/04/14 09:51:12;;;;;;;;;;;;;;;17.48;40.60;99772.84;4964811;27;98279;-68
2023/04/14 09:53:40;;;;;;;;;;;;;;;17.49;40.68;99766.28;4949945;27;99117;-66
2023/04/14 09:56:07;;;;;;;;;;;;;;;17.50;40.56;99769.81;4969156;27;100301;-70
2023/04/14 09:58:35;;;;;;;;;;;;;;;17.51;40.53;99764.00;4968803;27;98234;-67
2023/04/14 10:01:11;;;;;;;;;;;;;;;17.54;40.66;99766.09;4970279;27;99421;-67
2023/04/14 10:03:39;;;;;;;;;;;;;;;17.55;40.51;99764.94;4968969;27;98479;-64
2023/04/14 10:06:13;;;;;;;;;;;;;;;17.60;40.47;99766.66;4957614;27;98460;-64
2023/04/14 10:08:41;;;;;;;;;;;;;;;17.60;40.61;99770.19;4965906;27;125829;-66
2023/04/14 10:11:28;;;;;;;;;;;;;;;17.61;40.57;99760.13;4941640;27;101384;-66
2023/04/14 10:13:58;;;;;;;;;;;;;;;17.61;40.64;99763.63;4947182;28;98306;-65
2023/04/14 10:16:25;;;;;;;;;;;;;;;17.62;40.69;99767.94;4944433;28;99165;-66
2023/04/14 10:18:52;;;;;;;;;;;;;;;17.61;40.47;99769.09;4945005;28;98493;-69
2023/04/14 10:21:20;;;;;;;;;;;;;;;17.59;40.65;99765.09;4945050;28;98355;-68
2023/04/14 10:23:46;;;;;;;;;;;;;;;17.56;40.71;99761.09;4944946;28;98470;-68
2023/04/14 10:26:13;;;;;;;;;;;;;;;17.56;40.62;99766.53;4943423;28;128729;-65
2023/04/14 10:28:41;;;;;;;;;;;;;;;17.56;40.71;99769.25;4936328;27;99639;-65
2023/04/14 10:31:10;;;;;;;;;;;;;;;17.59;40.68;99760.44;4968036;27;98016;-66
2023/04/14 10:33:37;;;;;;;;;;;;;;;17.61;40.63;99763.63;4950874;27;101720;-65
2023/04/14 10:36:03;;;;;;;;;;;;;;;17.65;40.53;99758.31;4963626;27;98129;-69
2023/04/14 10:38:42;;;;;;;;;;;;;;;17.72;40.44;99764.03;4935149;27;114666;-66
2023/04/14 10:41:09;;;;;;;;;;;;;;;17.75;40.47;99757.16;4953664;28;98145;-69
2023/04/14 10:43:36;;;;;;;;;;;;;;;17.75;40.33;99757.16;4964532;27;99242;-70
2023/04/14 10:46:03;;;;;;;;;;;;;;;17.77;40.39;99768.53;4965947;27;98543;-66
2023/04/14 10:48:34;;;;;;;;;;;;;;;17.72;40.56;99765.94;4966212;27;98130;-66
2023/04/14 10:51:02;;;;;;;;;;;;;;;17.70;40.71;99749.94;4949718;27;99621;-65
2023/04/14 10:53:35;;;;;;;;;;;;;;;17.73;40.49;99753.94;4962418;27;98443;-68
2023/04/14 10:56:01;;;;;;;;;;;;;;;17.77;40.44;99749.44;4950748;27;99643;-65
2023/04/14 10:58:28;;;;;;;;;;;;;;;17.86;40.40;99750.19;4950777;28;122986;-68
2023/04/14 11:00:57;;;;;;;;;;;;;;;17.98;40.34;99746.72;4949476;27;98057;-65
2023/04/14 11:03:23;;;;;;;;;;;;;;;18.02;40.40;99755.81;4951889;27;98565;-69
2023/04/14 11:05:52;;;;;;;;;;;;;;;17.99;40.50;99749.09;4945716;27;127650;-69
2023/04/14 11:08:25;;;;;;;;;;;;;;;18.05;40.45;99741.53;4965959;27;123239;-65
2023/04/14 11:11:05;;;;;;;;;;;;;;;18.05;40.49;99744.25;4965605;27;98228;-65
2023/04/14 11:13:31;;;;;;;;;;;;;;;18.02;40.61;99740.25;4966439;27;99366;-69
2023/04/14 11:16:04;;;;;;;;;;;;;;;18.12;40.42;99737.13;4965802;27;98462;-66
2023/04/14 11:18:31;;;;;;;;;;;;;;;18.19;40.44;99735.75;4952122;27;105442;-65
2023/04/14 11:21:05;;;;;;;;;;;;;;;18.27;40.16;99735.69;4967563;27;98202;-69
2023/04/14 11:23:31;;;;;;;;;;;;;;;18.32;40.42;99735.47;4949723;27;98727;-66
2023/04/14 11:25:57;;;;;;;;;;;;;;;18.28;40.23;99731.03;4966119;27;98377;-69
2023/04/14 11:28:36;;;;;;;;;;;;;;;18.29;40.37;99730.69;4963937;27;98601;-69
2023/04/14 11:31:03;;;;;;;;;;;;;;;18.28;40.44;99731.84;4967412;27;98045;-66
2023/04/14 11:33:35;;;;;;;;;;;;;;;18.32;40.43;99730.03;4945846;28;100496;-69
2023/04/14 11:36:02;;;;;;;;;;;;;;;18.39;40.27;99727.56;4964350;27;99123;-66
2023/04/14 11:38:29;;;;;;;;;;;;;;;18.45;40.35;99721.88;4961955;27;128439;-68
2023/04/14 11:40:55;;;;;;;;;;;;;;;18.53;40.18;99724.50;4938198;27;98631;-69
2023/04/14 11:43:21;;;;;;;;;;;;;;;18.58;40.07;99718.81;4964639;27;99035;-70
2023/04/14 11:45:47;;;;;;;;;;;;;;;18.62;40.14;99721.66;4965594;27;111750;-67
2023/04/14 11:48:19;;;;;;;;;;;;;;;18.63;40.17;99721.34;4967247;27;102342;-66
2023/04/14 11:50:46;;;;;;;;;;;;;;;18.60;40.31;99718.50;4965235;27;121697;-66
2023/04/14 11:53:13;;;;;;;;;;;;;;;18.60;40.35;99718.50;4966707;27;126413;-69
2023/04/14 11:55:43;;;;;;;;;;;;;;;18.55;40.23;99719.53;4965332;27;128742;-65
2023/04/14 11:58:10;;;;;;;;;;;;;;;18.58;40.23;99723.47;4966757;27;98103;-69
2023/04/14 12:00:36;;;;;;;;;;;;;;;18.53;40.40;99710.84;4955044;28;98178;-69
2023/04/14 12:03:02;;;;;;;;;;;;;;;18.51;40.49;99707.69;4961767;27;127822;-69
2023/04/14 12:05:30;;;;;;;;;;;;;;;18.46;40.52;99716.06;4964521;27;104818;-69
2023/04/14 12:08:08;;;;;;;;;;;;;;;18.42;40.53;99709.69;4963405;27;98006;-69
2023/04/14 12:10:37;;;;;;;;;;;;;;;18.38;40.46;99706.06;4965786;27;99389;-69
2023/04/14 12:13:07;;;;;;;;;;;;;;;18.36;40.50;99706.41;4947251;27;117935;-69
2023/04/14 12:15:37;;;;;;;;;;;;;;;18.34;40.58;99695.00;4953231;28;98707;-66
2023/04/14 12:18:07;;;;;;;;;;;;;;;18.35;40.50;99698.53;4957996;27;98105;-69
2023/04/14 12:20:51;;;;;;;;;;;;;;;18.36;40.50;99692.75;4939450;28;121332;-66
2023/04/14 12:23:17;;;;;;;;;;;;;;;18.38;40.49;99693.19;4969590;27;98592;-66
2023/04/14 12:25:43;;;;;;;;;;;;;;;18.37;40.59;99686.16;4953232;28;104742;-69
2023/04/14 12:28:09;;;;;;;;;;;;;;;18.34;40.72;99688.75;4935037;28;125543;-66
2023/04/14 12:30:36;;;;;;;;;;;;;;;18.34;40.59;99691.50;4956643;28;98189;-66
2023/04/14 12:33:10;;;;;;;;;;;;;;;18.28;40.68;99690.13;4953597;27;98268;-69
2023/04/14 12:35:37;;;;;;;;;;;;;;;18.22;40.58;99681.34;4967542;27;99043;-66
2023/04/14 12:38:16;;;;;;;;;;;;;;;18.24;40.68;99686.47;4968303;27;98029;-69
2023/04/14 12:40:44;;;;;;;;;;;;;;;18.21;40.59;99678.97;4965699;27;98046;-69
2023/04/14 12:43:10;;;;;;;;;;;;;;;18.23;40.64;99679.41;4966253;27;98702;-66
2023/04/14 12:45:47;;;;;;;;;;;;;;;18.25;40.48;99675.22;4951479;28;98637;-68